sensor_id;sensor_type;location;lat;lon;timestamp;P1;durP1;ratioP1;P2;durP2;ratioP2
74789;SDS011;63318;52.406;13.416;2023-06-24T00:01:38;14.70;;;9.90;;
74789;SDS011;63318;52.406;13.416;2023-06-24T00:04:06;16.30;;;10.50;;
74789;SDS011;63318;52.406;13.416;2023-06-24T00:06:35;14.20;;;10.30;;
74789;SDS011;63318;52.406;13.416;2023-06-24T00:09:03;15.90;;;10.10;;
74789;SDS011;63318;52.406;13.416;2023-06-24T00:11:31;14.70;;;10.80;;
74789;SDS011;63318;52.406;13.416;2023-06-24T00:13:59;18.10;;;10.30;;
74789;SDS011;63318;52.406;13.416;2023-06-24T00:16:27;18.40;;;12.40;;
74789;SDS011;63318;52.406;13.416;2023-06-24T00:18:56;13.90;;;10.60;;
74789;SDS011;63318;52.406;13.416;2023-06-24T00:21:24;17.10;;;11.00;;
74789;SDS011;63318;52.406;13.416;2023-06-24T00:23:53;16.20;;;12.00;;
74789;SDS011;63318;52.406;13.416;2023-06-24T00:26:21;18.60;;;10.80;;
74789;SDS011;63318;52.406;13.416;2023-06-24T00:28:49;20.40;;;12.60;;
74789;SDS011;63318;52.406;13.416;2023-06-24T00:31:17;17.20;;;11.90;;
74789;SDS011;63318;52.406;13.416;2023-06-24T00:33:47;19.00;;;13.80;;
74789;SDS011;63318;52.406;13.416;2023-06-24T00:36:15;20.50;;;13.00;;
74789;SDS011;63318;52.406;13.416;2023-06-24T00:38:43;18.00;;;12.70;;
74789;SDS011;63318;52.406;13.416;2023-06-24T00:41:11;19.60;;;12.90;;
74789;SDS011;63318;52.406;13.416;2023-06-24T00:43:40;18.70;;;14.80;;
74789;SDS011;63318;52.406;13.416;2023-06-24T00:46:08;20.60;;;13.90;;
74789;SDS011;63318;52.406;13.416;2023-06-24T00:48:36;20.70;;;15.10;;
74789;SDS011;63318;52.406;13.416;2023-06-24T00:51:04;19.90;;;13.90;;
74789;SDS011;63318;52.406;13.416;2023-06-24T00:53:33;21.60;;;14.70;;
74789;SDS011;63318;52.406;13.416;2023-06-24T00:56:01;22.10;;;15.90;;
74789;SDS011;63318;52.406;13.416;2023-06-24T00:58:31;21.50;;;14.60;;
74789;SDS011;63318;52.406;13.416;2023-06-24T01:01:01;25.70;;;15.40;;
74789;SDS011;63318;52.406;13.416;2023-06-24T01:03:30;22.00;;;16.60;;
74789;SDS011;63318;52.406;13.416;2023-06-24T01:05:58;22.90;;;15.20;;
74789;SDS011;63318;52.406;13.416;2023-06-24T01:08:27;24.10;;;16.50;;
74789;SDS011;63318;52.406;13.416;2023-06-24T01:10:55;21.60;;;15.10;;
74789;SDS011;63318;52.406;13.416;2023-06-24T01:13:23;20.70;;;14.40;;
74789;SDS011;63318;52.406;13.416;2023-06-24T01:15:51;20.60;;;14.90;;
74789;SDS011;63318;52.406;13.416;2023-06-24T01:18:21;21.60;;;14.40;;
74789;SDS011;63318;52.406;13.416;2023-06-24T01:21:00;20.70;;;14.50;;
74789;SDS011;63318;52.406;13.416;2023-06-24T01:23:45;25.10;;;15.00;;
74789;SDS011;63318;52.406;13.416;2023-06-24T01:26:45;23.20;;;14.90;;
74789;SDS011;63318;52.406;13.416;2023-06-24T01:29:44;20.30;;;15.60;;
74789;SDS011;63318;52.406;13.416;2023-06-24T01:32:24;19.30;;;14.00;;
74789;SDS011;63318;52.406;13.416;2023-06-24T01:34:58;19.50;;;14.10;;
74789;SDS011;63318;52.406;13.416;2023-06-24T01:37:34;19.40;;;14.20;;
74789;SDS011;63318;52.406;13.416;2023-06-24T01:40:08;20.00;;;14.20;;
74789;SDS011;63318;52.406;13.416;2023-06-24T01:42:39;18.20;;;13.60;;
74789;SDS011;63318;52.406;13.416;2023-06-24T01:45:10;18.70;;;14.00;;
74789;SDS011;63318;52.406;13.416;2023-06-24T01:47:42;19.80;;;14.70;;
74789;SDS011;63318;52.406;13.416;2023-06-24T01:50:13;19.30;;;14.60;;
74789;SDS011;63318;52.406;13.416;2023-06-24T01:52:44;18.60;;;14.30;;
74789;SDS011;63318;52.406;13.416;2023-06-24T01:55:16;19.40;;;14.60;;
74789;SDS011;63318;52.406;13.416;2023-06-24T01:57:48;20.10;;;14.80;;
74789;SDS011;63318;52.406;13.416;2023-06-24T02:00:18;21.80;;;15.00;;
74789;SDS011;63318;52.406;13.416;2023-06-24T02:02:48;19.80;;;14.40;;
74789;SDS011;63318;52.406;13.416;2023-06-24T02:05:18;20.40;;;14.10;;
74789;SDS011;63318;52.406;13.416;2023-06-24T02:07:47;22.00;;;14.80;;
74789;SDS011;63318;52.406;13.416;2023-06-24T02:10:18;24.20;;;13.70;;
74789;SDS011;63318;52.406;13.416;2023-06-24T02:12:48;21.70;;;14.70;;
74789;SDS011;63318;52.406;13.416;2023-06-24T02:15:18;21.30;;;15.40;;
74789;SDS011;63318;52.406;13.416;2023-06-24T02:17:48;20.70;;;15.20;;
74789;SDS011;63318;52.406;13.416;2023-06-24T02:20:17;21.00;;;15.00;;
74789;SDS011;63318;52.406;13.416;2023-06-24T02:22:47;21.30;;;15.10;;
74789;SDS011;63318;52.406;13.416;2023-06-24T02:25:16;23.30;;;16.50;;
74789;SDS011;63318;52.406;13.416;2023-06-24T02:27:45;22.70;;;15.00;;
74789;SDS011;63318;52.406;13.416;2023-06-24T02:30:14;21.70;;;15.10;;
74789;SDS011;63318;52.406;13.416;2023-06-24T02:32:43;20.50;;;14.30;;
74789;SDS011;63318;52.406;13.416;2023-06-24T02:35:11;18.80;;;13.70;;
74789;SDS011;63318;52.406;13.416;2023-06-24T02:37:40;19.30;;;14.20;;
74789;SDS011;63318;52.406;13.416;2023-06-24T02:40:10;18.70;;;13.10;;
74789;SDS011;63318;52.406;13.416;2023-06-24T02:42:39;16.90;;;13.20;;
74789;SDS011;63318;52.406;13.416;2023-06-24T02:45:08;17.70;;;12.60;;
74789;SDS011;63318;52.406;13.416;2023-06-24T02:47:37;17.10;;;11.40;;
74789;SDS011;63318;52.406;13.416;2023-06-24T02:52:38;16.00;;;11.70;;
74789;SDS011;63318;52.406;13.416;2023-06-24T02:55:07;17.20;;;11.70;;
74789;SDS011;63318;52.406;13.416;2023-06-24T02:57:36;14.80;;;11.30;;
74789;SDS011;63318;52.406;13.416;2023-06-24T03:00:05;15.80;;;11.40;;
74789;SDS011;63318;52.406;13.416;2023-06-24T03:02:35;18.60;;;11.00;;
74789;SDS011;63318;52.406;13.416;2023-06-24T03:05:04;16.60;;;10.80;;
74789;SDS011;63318;52.406;13.416;2023-06-24T03:07:35;14.70;;;11.50;;
74789;SDS011;63318;52.406;13.416;2023-06-24T03:10:05;15.10;;;10.70;;
74789;SDS011;63318;52.406;13.416;2023-06-24T03:12:34;16.10;;;11.10;;
74789;SDS011;63318;52.406;13.416;2023-06-24T03:15:02;13.90;;;9.70;;
74789;SDS011;63318;52.406;13.416;2023-06-24T03:17:32;14.00;;;10.40;;
74789;SDS011;63318;52.406;13.416;2023-06-24T03:20:00;15.20;;;10.20;;
74789;SDS011;63318;52.406;13.416;2023-06-24T03:22:29;15.80;;;10.60;;
74789;SDS011;63318;52.406;13.416;2023-06-24T03:24:57;15.80;;;9.00;;
74789;SDS011;63318;52.406;13.416;2023-06-24T03:27:25;13.20;;;9.50;;
74789;SDS011;63318;52.406;13.416;2023-06-24T03:29:53;13.80;;;9.80;;
74789;SDS011;63318;52.406;13.416;2023-06-24T03:32:22;16.10;;;10.10;;
74789;SDS011;63318;52.406;13.416;2023-06-24T03:34:50;13.70;;;9.60;;
74789;SDS011;63318;52.406;13.416;2023-06-24T03:37:18;13.40;;;9.20;;
74789;SDS011;63318;52.406;13.416;2023-06-24T03:39:46;14.70;;;10.40;;
74789;SDS011;63318;52.406;13.416;2023-06-24T03:42:15;14.90;;;10.10;;
74789;SDS011;63318;52.406;13.416;2023-06-24T03:44:43;13.90;;;9.60;;
74789;SDS011;63318;52.406;13.416;2023-06-24T03:47:11;14.60;;;9.60;;
74789;SDS011;63318;52.406;13.416;2023-06-24T03:49:39;17.50;;;9.80;;
74789;SDS011;63318;52.406;13.416;2023-06-24T03:52:08;17.20;;;9.70;;
74789;SDS011;63318;52.406;13.416;2023-06-24T03:54:36;13.90;;;10.30;;
74789;SDS011;63318;52.406;13.416;2023-06-24T03:57:05;14.20;;;9.60;;
74789;SDS011;63318;52.406;13.416;2023-06-24T03:59:34;17.10;;;10.30;;
74789;SDS011;63318;52.406;13.416;2023-06-24T04:02:02;14.80;;;11.00;;
74789;SDS011;63318;52.406;13.416;2023-06-24T04:04:31;16.20;;;10.60;;
74789;SDS011;63318;52.406;13.416;2023-06-24T04:06:59;15.70;;;10.10;;
74789;SDS011;63318;52.406;13.416;2023-06-24T04:09:28;14.70;;;9.80;;
74789;SDS011;63318;52.406;13.416;2023-06-24T04:11:58;15.70;;;10.50;;
74789;SDS011;63318;52.406;13.416;2023-06-24T04:14:26;13.90;;;10.00;;
74789;SDS011;63318;52.406;13.416;2023-06-24T04:16:55;17.90;;;10.20;;
74789;SDS011;63318;52.406;13.416;2023-06-24T04:19:23;17.50;;;10.60;;
74789;SDS011;63318;52.406;13.416;2023-06-24T04:21:51;15.00;;;9.80;;
74789;SDS011;63318;52.406;13.416;2023-06-24T04:24:19;16.60;;;10.70;;
74789;SDS011;63318;52.406;13.416;2023-06-24T04:26:48;16.20;;;10.20;;
74789;SDS011;63318;52.406;13.416;2023-06-24T04:29:16;17.20;;;11.10;;
74789;SDS011;63318;52.406;13.416;2023-06-24T04:31:44;16.90;;;10.60;;
74789;SDS011;63318;52.406;13.416;2023-06-24T04:34:12;17.40;;;10.60;;
74789;SDS011;63318;52.406;13.416;2023-06-24T04:36:41;16.80;;;11.20;;
74789;SDS011;63318;52.406;13.416;2023-06-24T04:39:09;17.20;;;11.10;;
74789;SDS011;63318;52.406;13.416;2023-06-24T04:41:37;18.00;;;10.70;;
74789;SDS011;63318;52.406;13.416;2023-06-24T04:44:06;15.70;;;10.70;;
74789;SDS011;63318;52.406;13.416;2023-06-24T04:46:34;15.80;;;9.60;;
74789;SDS011;63318;52.406;13.416;2023-06-24T04:49:02;14.70;;;10.10;;
74789;SDS011;63318;52.406;13.416;2023-06-24T04:51:31;16.70;;;10.30;;
74789;SDS011;63318;52.406;13.416;2023-06-24T04:53:59;16.60;;;10.50;;
74789;SDS011;63318;52.406;13.416;2023-06-24T04:56:27;17.50;;;10.80;;
74789;SDS011;63318;52.406;13.416;2023-06-24T04:58:56;17.20;;;10.30;;
74789;SDS011;63318;52.406;13.416;2023-06-24T05:01:24;17.30;;;10.60;;
74789;SDS011;63318;52.406;13.416;2023-06-24T05:03:52;17.60;;;11.60;;
74789;SDS011;63318;52.406;13.416;2023-06-24T05:06:20;16.70;;;10.90;;
74789;SDS011;63318;52.406;13.416;2023-06-24T05:08:48;18.60;;;11.90;;
74789;SDS011;63318;52.406;13.416;2023-06-24T05:11:17;19.40;;;11.10;;
74789;SDS011;63318;52.406;13.416;2023-06-24T05:13:45;19.20;;;11.70;;
74789;SDS011;63318;52.406;13.416;2023-06-24T05:16:13;19.70;;;12.10;;
74789;SDS011;63318;52.406;13.416;2023-06-24T05:18:42;17.10;;;11.50;;
74789;SDS011;63318;52.406;13.416;2023-06-24T05:21:11;17.60;;;11.70;;
74789;SDS011;63318;52.406;13.416;2023-06-24T05:23:39;16.50;;;11.70;;
74789;SDS011;63318;52.406;13.416;2023-06-24T05:26:08;15.60;;;11.80;;
74789;SDS011;63318;52.406;13.416;2023-06-24T05:28:36;15.10;;;9.90;;
74789;SDS011;63318;52.406;13.416;2023-06-24T05:31:04;17.20;;;11.20;;
74789;SDS011;63318;52.406;13.416;2023-06-24T05:33:33;16.90;;;11.90;;
74789;SDS011;63318;52.406;13.416;2023-06-24T05:36:01;18.50;;;11.60;;
74789;SDS011;63318;52.406;13.416;2023-06-24T05:38:29;15.90;;;11.00;;
74789;SDS011;63318;52.406;13.416;2023-06-24T05:40:57;17.40;;;10.60;;
74789;SDS011;63318;52.406;13.416;2023-06-24T05:43:26;15.20;;;10.80;;
74789;SDS011;63318;52.406;13.416;2023-06-24T05:45:55;15.60;;;10.60;;
74789;SDS011;63318;52.406;13.416;2023-06-24T05:48:23;17.90;;;11.80;;
74789;SDS011;63318;52.406;13.416;2023-06-24T05:50:51;13.90;;;9.60;;
74789;SDS011;63318;52.406;13.416;2023-06-24T05:53:20;12.90;;;9.50;;
74789;SDS011;63318;52.406;13.416;2023-06-24T05:55:48;14.00;;;9.80;;
74789;SDS011;63318;52.406;13.416;2023-06-24T05:58:17;13.40;;;10.10;;
74789;SDS011;63318;52.406;13.416;2023-06-24T06:00:45;14.70;;;9.10;;
74789;SDS011;63318;52.406;13.416;2023-06-24T06:03:13;13.00;;;8.00;;
74789;SDS011;63318;52.406;13.416;2023-06-24T06:05:41;14.40;;;8.40;;
74789;SDS011;63318;52.406;13.416;2023-06-24T06:08:09;13.80;;;9.50;;
74789;SDS011;63318;52.406;13.416;2023-06-24T06:10:38;14.30;;;8.40;;
74789;SDS011;63318;52.406;13.416;2023-06-24T06:13:06;12.80;;;8.80;;
74789;SDS011;63318;52.406;13.416;2023-06-24T06:15:34;13.90;;;8.50;;
74789;SDS011;63318;52.406;13.416;2023-06-24T06:18:03;11.20;;;8.20;;
74789;SDS011;63318;52.406;13.416;2023-06-24T06:20:31;12.50;;;7.40;;
74789;SDS011;63318;52.406;13.416;2023-06-24T06:22:59;12.20;;;7.50;;
74789;SDS011;63318;52.406;13.416;2023-06-24T06:25:27;10.70;;;6.30;;
74789;SDS011;63318;52.406;13.416;2023-06-24T06:27:56;10.20;;;6.40;;
74789;SDS011;63318;52.406;13.416;2023-06-24T06:30:24;10.80;;;7.20;;
74789;SDS011;63318;52.406;13.416;2023-06-24T06:32:52;10.50;;;6.20;;
74789;SDS011;63318;52.406;13.416;2023-06-24T06:35:20;13.80;;;6.60;;
74789;SDS011;63318;52.406;13.416;2023-06-24T06:37:49;9.90;;;6.00;;
74789;SDS011;63318;52.406;13.416;2023-06-24T06:40:17;10.60;;;7.00;;
74789;SDS011;63318;52.406;13.416;2023-06-24T06:42:45;10.10;;;6.20;;
74789;SDS011;63318;52.406;13.416;2023-06-24T06:45:13;9.70;;;6.40;;
74789;SDS011;63318;52.406;13.416;2023-06-24T06:47:42;9.80;;;6.40;;
74789;SDS011;63318;52.406;13.416;2023-06-24T06:50:10;8.40;;;5.40;;
74789;SDS011;63318;52.406;13.416;2023-06-24T06:52:39;9.20;;;6.20;;
74789;SDS011;63318;52.406;13.416;2023-06-24T06:55:07;10.20;;;6.60;;
74789;SDS011;63318;52.406;13.416;2023-06-24T06:57:36;9.70;;;5.80;;
74789;SDS011;63318;52.406;13.416;2023-06-24T07:00:05;10.10;;;6.20;;
74789;SDS011;63318;52.406;13.416;2023-06-24T07:02:35;9.50;;;5.70;;
74789;SDS011;63318;52.406;13.416;2023-06-24T07:05:03;9.50;;;5.70;;
74789;SDS011;63318;52.406;13.416;2023-06-24T07:07:32;9.80;;;5.70;;
74789;SDS011;63318;52.406;13.416;2023-06-24T07:10:00;9.70;;;5.00;;
74789;SDS011;63318;52.406;13.416;2023-06-24T07:12:28;8.80;;;4.80;;
74789;SDS011;63318;52.406;13.416;2023-06-24T07:14:57;7.80;;;4.90;;
74789;SDS011;63318;52.406;13.416;2023-06-24T07:17:25;8.60;;;5.00;;
74789;SDS011;63318;52.406;13.416;2023-06-24T07:19:53;9.40;;;4.40;;
74789;SDS011;63318;52.406;13.416;2023-06-24T07:22:22;10.70;;;4.60;;
74789;SDS011;63318;52.406;13.416;2023-06-24T07:24:50;9.60;;;4.80;;
74789;SDS011;63318;52.406;13.416;2023-06-24T07:27:18;7.20;;;4.50;;
74789;SDS011;63318;52.406;13.416;2023-06-24T07:29:46;7.70;;;4.30;;
74789;SDS011;63318;52.406;13.416;2023-06-24T07:32:15;8.60;;;4.30;;
74789;SDS011;63318;52.406;13.416;2023-06-24T07:34:43;6.80;;;4.60;;
74789;SDS011;63318;52.406;13.416;2023-06-24T07:37:11;5.90;;;3.60;;
74789;SDS011;63318;52.406;13.416;2023-06-24T07:39:39;7.30;;;4.10;;
74789;SDS011;63318;52.406;13.416;2023-06-24T07:42:08;8.00;;;3.60;;
74789;SDS011;63318;52.406;13.416;2023-06-24T07:44:36;6.90;;;4.10;;
74789;SDS011;63318;52.406;13.416;2023-06-24T07:47:04;6.00;;;3.90;;
74789;SDS011;63318;52.406;13.416;2023-06-24T07:49:33;6.70;;;3.50;;
74789;SDS011;63318;52.406;13.416;2023-06-24T07:52:01;6.30;;;3.90;;
74789;SDS011;63318;52.406;13.416;2023-06-24T07:54:30;6.40;;;4.00;;
74789;SDS011;63318;52.406;13.416;2023-06-24T07:56:58;7.30;;;4.20;;
74789;SDS011;63318;52.406;13.416;2023-06-24T07:59:27;6.30;;;3.80;;
74789;SDS011;63318;52.406;13.416;2023-06-24T08:01:55;6.20;;;4.00;;
74789;SDS011;63318;52.406;13.416;2023-06-24T08:04:23;7.10;;;3.50;;
74789;SDS011;63318;52.406;13.416;2023-06-24T08:06:51;6.20;;;3.20;;
74789;SDS011;63318;52.406;13.416;2023-06-24T08:09:20;7.60;;;3.70;;
74789;SDS011;63318;52.406;13.416;2023-06-24T08:11:48;5.20;;;3.20;;
74789;SDS011;63318;52.406;13.416;2023-06-24T08:14:16;6.40;;;3.50;;
74789;SDS011;63318;52.406;13.416;2023-06-24T08:16:44;6.40;;;4.20;;
74789;SDS011;63318;52.406;13.416;2023-06-24T08:19:13;6.00;;;3.40;;
74789;SDS011;63318;52.406;13.416;2023-06-24T08:21:41;6.00;;;3.50;;
74789;SDS011;63318;52.406;13.416;2023-06-24T08:24:09;5.40;;;3.40;;
74789;SDS011;63318;52.406;13.416;2023-06-24T08:26:37;5.50;;;3.30;;
74789;SDS011;63318;52.406;13.416;2023-06-24T08:29:05;6.10;;;3.80;;
74789;SDS011;63318;52.406;13.416;2023-06-24T08:31:34;7.60;;;3.20;;
74789;SDS011;63318;52.406;13.416;2023-06-24T08:34:02;6.00;;;3.20;;
74789;SDS011;63318;52.406;13.416;2023-06-24T08:36:30;6.20;;;3.40;;
74789;SDS011;63318;52.406;13.416;2023-06-24T08:38:59;7.00;;;3.40;;
74789;SDS011;63318;52.406;13.416;2023-06-24T08:41:27;5.00;;;3.20;;
74789;SDS011;63318;52.406;13.416;2023-06-24T08:43:55;6.10;;;3.60;;
74789;SDS011;63318;52.406;13.416;2023-06-24T08:46:24;6.50;;;3.40;;
74789;SDS011;63318;52.406;13.416;2023-06-24T08:49:02;5.40;;;3.20;;
74789;SDS011;63318;52.406;13.416;2023-06-24T08:51:40;6.60;;;3.20;;
74789;SDS011;63318;52.406;13.416;2023-06-24T08:54:10;6.40;;;3.80;;
74789;SDS011;63318;52.406;13.416;2023-06-24T08:56:41;4.70;;;3.00;;
74789;SDS011;63318;52.406;13.416;2023-06-24T08:59:09;5.50;;;3.30;;
74789;SDS011;63318;52.406;13.416;2023-06-24T09:01:37;6.10;;;3.50;;
74789;SDS011;63318;52.406;13.416;2023-06-24T09:04:06;5.50;;;3.30;;
74789;SDS011;63318;52.406;13.416;2023-06-24T09:06:34;6.50;;;3.40;;
74789;SDS011;63318;52.406;13.416;2023-06-24T09:09:02;6.40;;;3.50;;
74789;SDS011;63318;52.406;13.416;2023-06-24T09:11:31;8.00;;;3.40;;
74789;SDS011;63318;52.406;13.416;2023-06-24T09:13:59;6.10;;;3.70;;
74789;SDS011;63318;52.406;13.416;2023-06-24T09:16:28;4.80;;;3.10;;
74789;SDS011;63318;52.406;13.416;2023-06-24T09:18:56;5.90;;;3.30;;
74789;SDS011;63318;52.406;13.416;2023-06-24T09:21:25;6.10;;;3.40;;
74789;SDS011;63318;52.406;13.416;2023-06-24T09:23:55;4.90;;;3.50;;
74789;SDS011;63318;52.406;13.416;2023-06-24T09:26:24;6.50;;;3.20;;
74789;SDS011;63318;52.406;13.416;2023-06-24T09:28:53;6.20;;;3.50;;
74789;SDS011;63318;52.406;13.416;2023-06-24T09:31:23;5.00;;;3.70;;
74789;SDS011;63318;52.406;13.416;2023-06-24T09:33:52;5.90;;;3.10;;
74789;SDS011;63318;52.406;13.416;2023-06-24T09:36:24;6.70;;;3.40;;
74789;SDS011;63318;52.406;13.416;2023-06-24T09:38:52;6.60;;;3.30;;
74789;SDS011;63318;52.406;13.416;2023-06-24T09:41:21;6.60;;;3.50;;
74789;SDS011;63318;52.406;13.416;2023-06-24T09:43:50;5.70;;;2.90;;
74789;SDS011;63318;52.406;13.416;2023-06-24T09:46:18;4.30;;;3.00;;
74789;SDS011;63318;52.406;13.416;2023-06-24T09:48:47;5.40;;;2.90;;
74789;SDS011;63318;52.406;13.416;2023-06-24T09:51:15;5.90;;;2.90;;
74789;SDS011;63318;52.406;13.416;2023-06-24T09:53:44;5.40;;;3.10;;
74789;SDS011;63318;52.406;13.416;2023-06-24T09:56:13;4.20;;;2.80;;
74789;SDS011;63318;52.406;13.416;2023-06-24T09:58:42;5.50;;;2.60;;
74789;SDS011;63318;52.406;13.416;2023-06-24T10:01:13;6.20;;;2.80;;
74789;SDS011;63318;52.406;13.416;2023-06-24T10:03:42;5.00;;;2.30;;
74789;SDS011;63318;52.406;13.416;2023-06-24T10:06:11;5.50;;;2.70;;
74789;SDS011;63318;52.406;13.416;2023-06-24T10:08:39;4.10;;;2.50;;
74789;SDS011;63318;52.406;13.416;2023-06-24T10:11:08;5.90;;;2.50;;
74789;SDS011;63318;52.406;13.416;2023-06-24T10:13:36;4.30;;;2.70;;
74789;SDS011;63318;52.406;13.416;2023-06-24T10:16:05;8.60;;;3.10;;
74789;SDS011;63318;52.406;13.416;2023-06-24T10:18:33;6.00;;;2.90;;
74789;SDS011;63318;52.406;13.416;2023-06-24T10:21:05;5.80;;;2.80;;
74789;SDS011;63318;52.406;13.416;2023-06-24T10:23:39;4.10;;;2.40;;
74789;SDS011;63318;52.406;13.416;2023-06-24T10:26:09;4.70;;;2.50;;
74789;SDS011;63318;52.406;13.416;2023-06-24T10:34:30;4.90;;;2.50;;
74789;SDS011;63318;52.406;13.416;2023-06-24T10:37:00;5.90;;;2.40;;
74789;SDS011;63318;52.406;13.416;2023-06-24T10:39:36;3.90;;;2.00;;
74789;SDS011;63318;52.406;13.416;2023-06-24T10:45:15;4.90;;;2.70;;
74789;SDS011;63318;52.406;13.416;2023-06-24T10:47:49;7.10;;;2.80;;
74789;SDS011;63318;52.406;13.416;2023-06-24T10:50:18;5.30;;;2.50;;
74789;SDS011;63318;52.406;13.416;2023-06-24T10:52:49;6.30;;;2.20;;
74789;SDS011;63318;52.406;13.416;2023-06-24T10:55:18;6.10;;;2.90;;
74789;SDS011;63318;52.406;13.416;2023-06-24T10:57:48;5.00;;;2.60;;
74789;SDS011;63318;52.406;13.416;2023-06-24T11:00:17;3.60;;;2.20;;
74789;SDS011;63318;52.406;13.416;2023-06-24T11:02:47;5.60;;;2.40;;
74789;SDS011;63318;52.406;13.416;2023-06-24T11:05:15;4.60;;;2.20;;
74789;SDS011;63318;52.406;13.416;2023-06-24T11:07:43;4.80;;;2.60;;
74789;SDS011;63318;52.406;13.416;2023-06-24T11:10:12;4.20;;;2.50;;
74789;SDS011;63318;52.406;13.416;2023-06-24T11:12:41;4.00;;;2.20;;
74789;SDS011;63318;52.406;13.416;2023-06-24T11:15:10;5.10;;;2.40;;
74789;SDS011;63318;52.406;13.416;2023-06-24T11:17:40;5.40;;;2.40;;
74789;SDS011;63318;52.406;13.416;2023-06-24T11:20:09;4.70;;;2.60;;
74789;SDS011;63318;52.406;13.416;2023-06-24T11:22:39;4.10;;;2.20;;
74789;SDS011;63318;52.406;13.416;2023-06-24T11:25:10;5.50;;;2.20;;
74789;SDS011;63318;52.406;13.416;2023-06-24T11:27:42;5.50;;;2.70;;
74789;SDS011;63318;52.406;13.416;2023-06-24T11:30:12;5.20;;;2.50;;
74789;SDS011;63318;52.406;13.416;2023-06-24T11:32:43;5.00;;;2.30;;
74789;SDS011;63318;52.406;13.416;2023-06-24T11:35:12;3.90;;;2.40;;
74789;SDS011;63318;52.406;13.416;2023-06-24T11:37:42;4.20;;;2.50;;
74789;SDS011;63318;52.406;13.416;2023-06-24T11:40:13;4.90;;;3.00;;
74789;SDS011;63318;52.406;13.416;2023-06-24T11:42:42;6.10;;;2.50;;
74789;SDS011;63318;52.406;13.416;2023-06-24T11:45:11;4.30;;;2.40;;
74789;SDS011;63318;52.406;13.416;2023-06-24T11:47:40;5.00;;;2.20;;
74789;SDS011;63318;52.406;13.416;2023-06-24T11:50:09;4.60;;;2.40;;
74789;SDS011;63318;52.406;13.416;2023-06-24T11:52:40;4.50;;;2.50;;
74789;SDS011;63318;52.406;13.416;2023-06-24T11:55:12;4.10;;;2.50;;
74789;SDS011;63318;52.406;13.416;2023-06-24T11:57:49;4.70;;;2.40;;
74789;SDS011;63318;52.406;13.416;2023-06-24T12:00:20;4.20;;;2.30;;
74789;SDS011;63318;52.406;13.416;2023-06-24T12:02:50;4.80;;;2.30;;
74789;SDS011;63318;52.406;13.416;2023-06-24T12:05:21;5.20;;;2.60;;
74789;SDS011;63318;52.406;13.416;2023-06-24T12:07:51;6.20;;;2.60;;
74789;SDS011;63318;52.406;13.416;2023-06-24T12:10:20;4.20;;;2.00;;
74789;SDS011;63318;52.406;13.416;2023-06-24T12:12:48;6.30;;;2.70;;
74789;SDS011;63318;52.406;13.416;2023-06-24T12:15:17;4.50;;;2.40;;
74789;SDS011;63318;52.406;13.416;2023-06-24T12:17:45;4.20;;;2.30;;
74789;SDS011;63318;52.406;13.416;2023-06-24T12:20:14;5.00;;;2.40;;
74789;SDS011;63318;52.406;13.416;2023-06-24T12:22:43;4.90;;;2.30;;
74789;SDS011;63318;52.406;13.416;2023-06-24T12:25:11;4.40;;;2.20;;
74789;SDS011;63318;52.406;13.416;2023-06-24T12:27:41;6.40;;;2.80;;
74789;SDS011;63318;52.406;13.416;2023-06-24T12:30:12;4.30;;;2.50;;
74789;SDS011;63318;52.406;13.416;2023-06-24T12:32:40;5.20;;;2.70;;
74789;SDS011;63318;52.406;13.416;2023-06-24T12:35:09;5.90;;;2.70;;
74789;SDS011;63318;52.406;13.416;2023-06-24T12:37:38;4.70;;;2.40;;
74789;SDS011;63318;52.406;13.416;2023-06-24T12:40:07;4.50;;;2.80;;
74789;SDS011;63318;52.406;13.416;2023-06-24T12:42:36;5.30;;;2.50;;
74789;SDS011;63318;52.406;13.416;2023-06-24T12:45:05;4.30;;;2.70;;
74789;SDS011;63318;52.406;13.416;2023-06-24T12:47:35;5.40;;;2.70;;
74789;SDS011;63318;52.406;13.416;2023-06-24T12:50:03;4.00;;;2.40;;
74789;SDS011;63318;52.406;13.416;2023-06-24T12:52:33;4.60;;;2.50;;
74789;SDS011;63318;52.406;13.416;2023-06-24T12:55:01;5.00;;;2.90;;
74789;SDS011;63318;52.406;13.416;2023-06-24T12:57:30;4.90;;;2.20;;
74789;SDS011;63318;52.406;13.416;2023-06-24T12:59:58;5.40;;;2.30;;
74789;SDS011;63318;52.406;13.416;2023-06-24T13:02:26;5.00;;;2.80;;
74789;SDS011;63318;52.406;13.416;2023-06-24T13:04:54;4.60;;;2.70;;
74789;SDS011;63318;52.406;13.416;2023-06-24T13:07:23;5.10;;;2.80;;
74789;SDS011;63318;52.406;13.416;2023-06-24T13:09:51;4.40;;;2.50;;
74789;SDS011;63318;52.406;13.416;2023-06-24T13:12:20;4.30;;;2.60;;
74789;SDS011;63318;52.406;13.416;2023-06-24T13:14:48;4.40;;;2.70;;
74789;SDS011;63318;52.406;13.416;2023-06-24T13:17:16;7.80;;;3.20;;
74789;SDS011;63318;52.406;13.416;2023-06-24T13:19:44;4.70;;;2.80;;
74789;SDS011;63318;52.406;13.416;2023-06-24T13:22:13;7.00;;;3.00;;
74789;SDS011;63318;52.406;13.416;2023-06-24T13:24:41;5.30;;;2.90;;
74789;SDS011;63318;52.406;13.416;2023-06-24T13:27:10;4.60;;;2.80;;
74789;SDS011;63318;52.406;13.416;2023-06-24T13:29:38;5.60;;;3.00;;
74789;SDS011;63318;52.406;13.416;2023-06-24T13:32:08;4.40;;;2.60;;
74789;SDS011;63318;52.406;13.416;2023-06-24T13:34:36;5.10;;;3.10;;
74789;SDS011;63318;52.406;13.416;2023-06-24T13:37:05;5.00;;;3.10;;
74789;SDS011;63318;52.406;13.416;2023-06-24T13:39:33;5.20;;;3.00;;
74789;SDS011;63318;52.406;13.416;2023-06-24T13:42:02;5.50;;;3.10;;
74789;SDS011;63318;52.406;13.416;2023-06-24T13:44:30;4.50;;;2.70;;
74789;SDS011;63318;52.406;13.416;2023-06-24T13:46:59;6.40;;;3.10;;
74789;SDS011;63318;52.406;13.416;2023-06-24T13:49:27;6.20;;;2.80;;
74789;SDS011;63318;52.406;13.416;2023-06-24T13:51:55;6.60;;;2.90;;
74789;SDS011;63318;52.406;13.416;2023-06-24T13:54:23;5.50;;;3.30;;
74789;SDS011;63318;52.406;13.416;2023-06-24T13:56:52;5.20;;;3.00;;
74789;SDS011;63318;52.406;13.416;2023-06-24T13:59:20;4.50;;;2.80;;
74789;SDS011;63318;52.406;13.416;2023-06-24T14:01:48;5.90;;;3.00;;
74789;SDS011;63318;52.406;13.416;2023-06-24T14:04:17;4.70;;;3.00;;
74789;SDS011;63318;52.406;13.416;2023-06-24T14:06:45;6.30;;;3.00;;
74789;SDS011;63318;52.406;13.416;2023-06-24T14:09:13;5.10;;;3.10;;
74789;SDS011;63318;52.406;13.416;2023-06-24T14:11:41;4.60;;;2.90;;
74789;SDS011;63318;52.406;13.416;2023-06-24T14:14:09;5.00;;;3.30;;
74789;SDS011;63318;52.406;13.416;2023-06-24T14:16:38;5.70;;;3.10;;
74789;SDS011;63318;52.406;13.416;2023-06-24T14:19:06;6.80;;;3.50;;
74789;SDS011;63318;52.406;13.416;2023-06-24T14:21:34;51.50;;;33.10;;
74789;SDS011;63318;52.406;13.416;2023-06-24T14:24:03;9.30;;;5.00;;
74789;SDS011;63318;52.406;13.416;2023-06-24T14:26:32;52.70;;;24.00;;
74789;SDS011;63318;52.406;13.416;2023-06-24T14:29:00;27.40;;;12.70;;
74789;SDS011;63318;52.406;13.416;2023-06-24T14:31:29;99.70;;;42.60;;
74789;SDS011;63318;52.406;13.416;2023-06-24T14:33:57;13.80;;;7.80;;
74789;SDS011;63318;52.406;13.416;2023-06-24T14:36:25;15.60;;;9.40;;
74789;SDS011;63318;52.406;13.416;2023-06-24T14:38:54;5.20;;;3.20;;
74789;SDS011;63318;52.406;13.416;2023-06-24T14:41:22;6.10;;;4.60;;
74789;SDS011;63318;52.406;13.416;2023-06-24T14:43:51;6.80;;;4.60;;
74789;SDS011;63318;52.406;13.416;2023-06-24T14:46:19;6.50;;;3.40;;